createdAt,value
2023-01-28T00:00:54.906Z,7.53
2023-01-28T00:03:21.432Z,7.52
2023-01-28T00:05:47.774Z,7.54
2023-01-28T00:08:14.770Z,7.38
2023-01-28T00:10:43.091Z,7.59
2023-01-28T00:13:14.487Z,7.67
2023-01-28T00:15:41.012Z,7.73
2023-01-28T00:18:07.373Z,7.53
2023-01-28T00:20:35.298Z,7.09
2023-01-28T00:23:03.092Z,7.12
2023-01-28T00:25:29.673Z,7.35
2023-01-28T00:27:56.088Z,7.49
2023-01-28T00:30:22.630Z,6.94
2023-01-28T00:32:49.179Z,7.63
2023-01-28T00:35:16.144Z,7.43
2023-01-28T00:37:45.673Z,7.58
2023-01-28T00:40:12.529Z,7.38
2023-01-28T00:42:38.900Z,7.17
2023-01-28T00:45:05.591Z,7.42
2023-01-28T00:47:31.906Z,7.21
2023-01-28T00:49:58.320Z,7.44
2023-01-28T00:52:24.629Z,6.88
2023-01-28T00:54:51.010Z,7.30
2023-01-28T00:57:17.380Z,7.41
2023-01-28T00:59:43.808Z,6.84
2023-01-28T01:02:12.978Z,7.51
2023-01-28T01:04:41.014Z,6.79
2023-01-28T01:07:07.396Z,6.85
2023-01-28T01:09:33.792Z,7.21
2023-01-28T01:12:00.162Z,7.31
2023-01-28T01:14:26.519Z,7.35
2023-01-28T01:16:52.890Z,7.33
2023-01-28T01:19:19.248Z,7.23
2023-01-28T01:21:50.298Z,7.27
2023-01-28T01:24:16.849Z,7.04
2023-01-28T01:26:43.249Z,7.08
2023-01-28T01:29:09.820Z,7.19
2023-01-28T01:31:36.379Z,7.13
2023-01-28T01:34:02.793Z,7.17
2023-01-28T01:36:29.216Z,7.27
2023-01-28T01:38:55.845Z,7.17
2023-01-28T01:41:33.367Z,7.13
2023-01-28T01:44:05.692Z,7.41
2023-01-28T01:46:39.872Z,7.22
2023-01-28T01:49:11.539Z,7.32
2023-01-28T01:51:37.907Z,7.18
2023-01-28T01:54:05.352Z,7.22
2023-01-28T01:56:38.532Z,7.25
2023-01-28T01:59:08.361Z,6.31
2023-01-28T02:01:34.699Z,6.78
2023-01-28T02:04:07.174Z,7.07
2023-01-28T02:06:36.206Z,7.15
2023-01-28T02:09:03.383Z,6.37
2023-01-28T02:11:33.439Z,6.56
2023-01-28T02:14:04.250Z,6.85
2023-01-28T02:16:32.464Z,6.83
2023-01-28T02:18:58.906Z,6.73
2023-01-28T02:21:31.319Z,7.01
2023-01-28T02:24:21.837Z,6.66
2023-01-28T02:27:14.591Z,6.78
2023-01-28T02:29:55.995Z,6.79
2023-01-28T02:32:29.661Z,6.60
2023-01-28T02:35:18.361Z,6.79
2023-01-28T02:37:53.553Z,6.64
2023-01-28T02:40:25.018Z,6.52
2023-01-28T02:42:51.498Z,6.51
2023-01-28T02:45:48.602Z,6.58
2023-01-28T02:48:16.591Z,5.86
2023-01-28T02:51:04.462Z,6.56
2023-01-28T02:53:43.928Z,6.28
2023-01-28T02:56:30.766Z,6.68
2023-01-28T02:59:28.114Z,6.27
2023-01-28T03:02:16.997Z,6.02
2023-01-28T03:04:49.930Z,6.51
2023-01-28T03:07:18.757Z,6.55
2023-01-28T03:09:48.518Z,5.54
2023-01-28T03:12:46.173Z,6.51
2023-01-28T03:16:07.031Z,6.48
2023-01-28T03:19:10.230Z,6.07
2023-01-28T03:22:01.541Z,6.60
2023-01-28T03:24:51.860Z,6.34
2023-01-28T03:27:43.728Z,6.12
2023-01-28T03:30:36.528Z,6.15
2023-01-28T03:33:23.282Z,5.96
2023-01-28T03:36:08.517Z,6.12
2023-01-28T03:38:42.099Z,5.68
2023-01-28T03:41:11.395Z,6.19
2023-01-28T03:43:38.192Z,6.11
2023-01-28T03:46:06.269Z,6.26
2023-01-28T03:48:32.737Z,5.88
2023-01-28T03:51:00.381Z,6.14
2023-01-28T03:53:28.117Z,6.48
2023-01-28T03:55:56.477Z,6.38
2023-01-28T03:58:26.998Z,5.86
2023-01-28T04:00:54.370Z,6.29
2023-01-28T04:03:22.000Z,6.53
2023-01-28T04:06:06.590Z,6.20
2023-01-28T04:08:33.163Z,6.09
2023-01-28T04:11:15.373Z,5.76
2023-01-28T04:13:46.363Z,6.28
2023-01-28T04:16:15.498Z,6.28
2023-01-28T04:18:42.991Z,6.13
2023-01-28T04:21:09.869Z,5.97
2023-01-28T04:23:36.262Z,6.02
2023-01-28T04:26:04.042Z,5.79
2023-01-28T04:28:30.491Z,5.84
2023-01-28T04:30:56.981Z,5.63
2023-01-28T04:33:23.477Z,5.99
2023-01-28T04:35:49.803Z,5.89
2023-01-28T04:38:16.151Z,5.68
2023-01-28T04:40:42.511Z,5.85
2023-01-28T04:43:09.065Z,5.84
2023-01-28T04:45:35.394Z,5.69
2023-01-28T04:48:01.804Z,5.99
2023-01-28T04:50:28.169Z,5.94
2023-01-28T04:52:54.487Z,6.05
2023-01-28T04:55:20.832Z,5.94
2023-01-28T04:57:48.620Z,6.27
2023-01-28T05:00:15.298Z,5.66
2023-01-28T05:02:41.709Z,5.76
2023-01-28T05:05:08.974Z,6.07
2023-01-28T05:07:36.036Z,6.03
2023-01-28T05:10:02.676Z,5.86
2023-01-28T05:12:30.290Z,6.05
2023-01-28T05:14:56.633Z,6.02
2023-01-28T05:17:22.986Z,6.18
2023-01-28T05:19:49.409Z,6.06
2023-01-28T05:22:15.765Z,5.98
2023-01-28T05:24:42.127Z,5.80
2023-01-28T05:27:08.527Z,5.87
2023-01-28T05:29:34.915Z,5.75
2023-01-28T05:32:01.314Z,5.36
2023-01-28T05:34:27.640Z,5.89
2023-01-28T05:36:54.005Z,5.97
2023-01-28T05:39:20.363Z,5.91
2023-01-28T05:41:46.662Z,5.39
2023-01-28T05:44:13.091Z,5.91
2023-01-28T05:46:45.184Z,5.77
2023-01-28T05:49:13.411Z,5.70
2023-01-28T05:51:40.110Z,5.58
2023-01-28T05:54:07.610Z,5.76
2023-01-28T05:56:34.989Z,5.82
2023-01-28T05:59:01.311Z,5.91
2023-01-28T06:01:27.725Z,5.98
2023-01-28T06:03:54.179Z,5.81
2023-01-28T06:06:20.707Z,6.01
2023-01-28T06:08:47.137Z,5.96
2023-01-28T06:11:13.508Z,5.57
2023-01-28T06:13:41.610Z,5.86
2023-01-28T06:16:08.761Z,6.00
2023-01-28T06:18:35.301Z,5.80
2023-01-28T06:21:01.657Z,6.11
2023-01-28T06:23:28.001Z,5.78
2023-01-28T06:25:55.542Z,6.23
2023-01-28T06:28:22.408Z,6.12
2023-01-28T06:30:49.623Z,6.18
2023-01-28T06:33:16.085Z,6.04
2023-01-28T06:35:42.821Z,6.13
2023-01-28T06:38:09.461Z,6.07
2023-01-28T06:40:35.906Z,6.26
2023-01-28T06:43:02.601Z,6.25
2023-01-28T06:45:29.294Z,6.48
2023-01-28T06:47:55.626Z,6.04
2023-01-28T06:50:21.950Z,6.27
2023-01-28T06:52:48.258Z,6.00
2023-01-28T06:55:14.608Z,6.36
2023-01-28T06:57:41.698Z,6.28
2023-01-28T07:00:10.547Z,6.06
2023-01-28T07:02:37.358Z,6.11
2023-01-28T07:05:04.725Z,6.05
2023-01-28T07:07:33.474Z,6.18
2023-01-28T07:09:59.872Z,6.16
2023-01-28T07:12:26.195Z,6.18
2023-01-28T07:14:52.632Z,6.11
2023-01-28T07:17:19.150Z,6.51
2023-01-28T07:19:45.549Z,6.27
2023-01-28T07:22:11.922Z,6.39
2023-01-28T07:24:38.292Z,6.12
2023-01-28T07:27:04.664Z,5.89
2023-01-28T07:29:30.999Z,6.09
2023-01-28T07:31:57.365Z,5.89
2023-01-28T07:34:23.750Z,6.23
2023-01-28T07:36:50.172Z,6.21
2023-01-28T07:39:16.504Z,6.23
2023-01-28T07:41:43.158Z,6.05
2023-01-28T07:44:09.531Z,6.03
2023-01-28T07:46:35.881Z,6.02
2023-01-28T07:49:02.256Z,6.00
2023-01-28T07:51:28.566Z,5.75
2023-01-28T07:53:54.963Z,6.16
2023-01-28T07:56:21.282Z,5.65
2023-01-28T07:58:49.999Z,5.73
2023-01-28T08:01:16.374Z,5.57
2023-01-28T08:03:42.722Z,5.68
2023-01-28T08:06:09.151Z,5.22
2023-01-28T08:08:35.494Z,5.41
2023-01-28T08:11:11.744Z,5.55
2023-01-28T08:13:38.104Z,5.63
2023-01-28T08:16:04.958Z,5.78
2023-01-28T08:18:31.947Z,5.50
2023-01-28T08:20:59.474Z,5.44
2023-01-28T08:23:27.135Z,5.77
2023-01-28T08:25:53.972Z,5.77
2023-01-28T08:28:21.571Z,5.90
2023-01-28T08:30:48.044Z,5.18
2023-01-28T08:33:16.034Z,5.75
2023-01-28T08:35:42.571Z,5.58
2023-01-28T08:38:11.695Z,5.93
2023-01-28T08:40:38.124Z,5.74
2023-01-28T08:43:05.457Z,5.86
2023-01-28T08:45:32.168Z,5.04
2023-01-28T08:48:04.166Z,5.13
2023-01-28T08:50:36.420Z,5.71
2023-01-28T08:53:06.634Z,5.99
2023-01-28T08:55:34.098Z,5.83
2023-01-28T08:58:05.873Z,5.86
2023-01-28T09:00:33.647Z,5.49
2023-01-28T09:03:00.136Z,5.91
2023-01-28T09:05:26.759Z,5.95
2023-01-28T09:07:53.216Z,5.97
2023-01-28T09:10:23.060Z,5.51
2023-01-28T09:12:49.382Z,5.03
2023-01-28T09:15:15.854Z,5.30
2023-01-28T09:17:42.311Z,5.74
2023-01-28T09:20:09.246Z,5.10
2023-01-28T09:22:35.769Z,5.57
2023-01-28T09:25:02.135Z,5.35
2023-01-28T09:27:28.585Z,6.05
2023-01-28T09:29:54.915Z,5.96
2023-01-28T09:32:21.265Z,5.83
2023-01-28T09:34:47.677Z,5.87
2023-01-28T09:37:14.565Z,5.80
2023-01-28T09:39:41.002Z,5.56
2023-01-28T09:42:42.128Z,5.85
2023-01-28T09:45:17.118Z,6.07
2023-01-28T09:47:59.994Z,5.87
2023-01-28T09:50:39.709Z,6.22
2023-01-28T09:53:13.621Z,6.08
2023-01-28T09:55:44.480Z,6.10
2023-01-28T09:58:15.686Z,5.99
2023-01-28T10:01:12.110Z,6.54
2023-01-28T10:03:44.446Z,6.57
2023-01-28T10:06:42.834Z,6.27
2023-01-28T10:09:28.138Z,6.52
2023-01-28T10:12:04.827Z,6.66
2023-01-28T10:14:58.399Z,6.69
2023-01-28T10:17:50.251Z,6.66
2023-01-28T10:20:26.981Z,6.63
2023-01-28T10:23:52.791Z,6.40
2023-01-28T10:26:25.155Z,6.42
2023-01-28T10:28:59.834Z,5.28
2023-01-28T10:31:32.262Z,6.21
2023-01-28T10:33:59.567Z,6.58
2023-01-28T10:36:26.390Z,6.20
2023-01-28T10:38:52.831Z,6.84
2023-01-28T10:41:21.591Z,6.55
2023-01-28T10:43:49.573Z,6.85
2023-01-28T10:46:22.116Z,6.57
2023-01-28T10:48:56.545Z,6.58
2023-01-28T10:51:39.925Z,6.27
2023-01-28T10:54:24.310Z,6.17
2023-01-28T10:56:53.452Z,6.48
2023-01-28T10:59:27.356Z,6.40
2023-01-28T11:01:57.350Z,6.65
2023-01-28T11:04:30.242Z,6.68
2023-01-28T11:07:01.063Z,6.71
2023-01-28T11:09:33.323Z,6.01
2023-01-28T11:12:14.309Z,6.56
2023-01-28T11:14:51.192Z,5.77
2023-01-28T11:17:19.273Z,6.07
2023-01-28T11:19:46.190Z,6.07
2023-01-28T11:22:39.571Z,6.20
2023-01-28T11:25:19.683Z,5.41
2023-01-28T11:27:51.351Z,6.00
2023-01-28T11:30:40.615Z,6.22
2023-01-28T11:33:23.893Z,6.07
2023-01-28T11:36:03.976Z,5.99
2023-01-28T11:38:30.479Z,5.72
2023-01-28T11:40:58.634Z,5.57
2023-01-28T11:43:27.976Z,5.80
2023-01-28T11:46:13.062Z,6.23
2023-01-28T11:48:50.424Z,6.21
2023-01-28T11:51:30.141Z,6.32
2023-01-28T11:54:16.241Z,6.08
2023-01-28T11:56:52.058Z,6.22
2023-01-28T11:59:33.275Z,6.18
2023-01-28T12:02:24.582Z,6.08
2023-01-28T12:05:10.028Z,6.20
2023-01-28T12:07:52.298Z,5.91
2023-01-28T12:10:27.258Z,5.59
2023-01-28T12:13:34.164Z,5.71
2023-01-28T12:16:22.010Z,6.12
2023-01-28T12:18:57.467Z,6.09
2023-01-28T12:21:49.551Z,6.18
2023-01-28T12:24:39.422Z,6.18
2023-01-28T12:27:44.218Z,5.98
2023-01-28T12:30:51.065Z,5.22
2023-01-28T12:33:23.448Z,6.38
2023-01-28T12:36:23.971Z,6.51
2023-01-28T12:39:15.120Z,6.67
2023-01-28T12:41:50.511Z,6.71
2023-01-28T12:44:35.644Z,6.75
2023-01-28T12:47:08.202Z,6.95
2023-01-28T12:49:40.030Z,7.01
2023-01-28T12:52:24.837Z,7.10
2023-01-28T12:55:16.201Z,7.21
2023-01-28T12:57:43.787Z,7.07
2023-01-28T13:00:30.021Z,7.24
2023-01-28T13:03:10.821Z,7.48
2023-01-28T13:05:46.254Z,7.74
2023-01-28T13:08:26.061Z,7.65
2023-01-28T13:10:53.803Z,7.31
2023-01-28T13:13:20.154Z,7.62
2023-01-28T13:15:47.300Z,7.55
2023-01-28T13:18:33.894Z,7.41
2023-01-28T13:21:02.211Z,7.56
2023-01-28T13:23:32.174Z,7.42
2023-01-28T13:26:29.316Z,6.93
2023-01-28T13:29:16.576Z,6.98
2023-01-28T13:31:45.608Z,6.88
2023-01-28T13:34:36.294Z,7.21
2023-01-28T13:37:27.784Z,7.11
2023-01-28T13:40:02.144Z,6.97
2023-01-28T13:42:30.442Z,6.96
2023-01-28T13:45:08.660Z,7.24
2023-01-28T13:47:37.488Z,7.00
2023-01-28T13:50:15.418Z,6.75
2023-01-28T13:52:53.582Z,7.15
2023-01-28T13:55:42.425Z,7.17
2023-01-28T13:58:46.065Z,7.46
2023-01-28T14:01:40.302Z,7.52
2023-01-28T14:04:45.201Z,7.51
2023-01-28T14:07:39.681Z,7.42
2023-01-28T14:10:24.831Z,7.44
2023-01-28T14:13:06.982Z,7.39
2023-01-28T14:16:06.287Z,7.37
2023-01-28T14:18:38.599Z,7.03
2023-01-28T14:21:18.415Z,6.96
2023-01-28T14:23:49.039Z,6.96
2023-01-28T14:26:35.812Z,6.86
2023-01-28T14:29:10.966Z,7.39
2023-01-28T14:31:39.193Z,7.12
2023-01-28T14:34:12.745Z,7.33
2023-01-28T14:36:45.269Z,7.29
2023-01-28T14:39:30.991Z,6.93
2023-01-28T14:42:01.788Z,7.26
2023-01-28T14:44:31.161Z,7.11
2023-01-28T14:47:16.220Z,7.16
2023-01-28T14:50:07.391Z,6.97
2023-01-28T14:52:55.661Z,6.92
2023-01-28T14:55:56.073Z,6.75
2023-01-28T14:58:27.641Z,6.74
2023-01-28T15:00:56.758Z,6.72
2023-01-28T15:03:25.319Z,6.51
2023-01-28T15:06:04.029Z,6.42
2023-01-28T15:08:32.227Z,6.19
2023-01-28T15:11:00.705Z,6.27
2023-01-28T15:13:30.788Z,6.20
2023-01-28T15:16:00.686Z,6.51
2023-01-28T15:18:33.943Z,6.49
2023-01-28T15:21:01.833Z,6.71
2023-01-28T15:23:33.285Z,6.73
2023-01-28T15:26:04.354Z,6.57
2023-01-28T15:28:33.046Z,6.68
2023-01-28T15:30:59.837Z,6.34
2023-01-28T15:33:26.709Z,6.50
2023-01-28T15:35:55.318Z,5.97
2023-01-28T15:38:22.649Z,6.22
2023-01-28T15:40:56.324Z,6.08
2023-01-28T15:43:26.929Z,5.59
2023-01-28T15:45:55.934Z,5.19
2023-01-28T15:48:25.296Z,5.15
2023-01-28T15:51:01.402Z,5.16
2023-01-28T15:53:42.023Z,5.43
2023-01-28T15:56:11.027Z,4.94
2023-01-28T15:58:41.585Z,5.41
2023-01-28T16:01:08.034Z,5.23
2023-01-28T16:03:39.398Z,5.07
2023-01-28T16:06:13.370Z,4.76
2023-01-28T16:08:58.739Z,4.74
2023-01-28T16:11:30.184Z,4.80
2023-01-28T16:13:57.801Z,4.97
2023-01-28T16:16:34.183Z,5.02
2023-01-28T16:19:04.099Z,4.91
2023-01-28T16:21:45.389Z,4.55
2023-01-28T16:24:27.308Z,4.84
2023-01-28T16:26:59.241Z,4.74
2023-01-28T16:29:29.267Z,4.66
2023-01-28T16:31:59.619Z,4.79
2023-01-28T16:34:27.651Z,4.85
2023-01-28T16:36:58.286Z,5.06
2023-01-28T16:39:24.695Z,5.15
2023-01-28T16:41:51.501Z,5.00
2023-01-28T16:44:17.852Z,4.69
2023-01-28T16:46:44.415Z,5.00
2023-01-28T16:49:10.809Z,4.92
2023-01-28T16:51:40.697Z,5.05
2023-01-28T16:54:07.116Z,4.86
2023-01-28T16:56:45.314Z,4.79
2023-01-28T16:59:12.614Z,4.80
2023-01-28T17:01:39.549Z,4.47
2023-01-28T17:04:11.567Z,4.57
2023-01-28T17:06:39.157Z,4.60
2023-01-28T17:09:05.855Z,4.63
2023-01-28T17:11:33.348Z,4.62
2023-01-28T17:14:00.441Z,4.69
2023-01-28T17:16:27.331Z,4.54
2023-01-28T17:18:54.422Z,4.39
2023-01-28T17:21:21.300Z,4.24
2023-01-28T17:23:47.761Z,4.37
2023-01-28T17:26:15.949Z,4.50
2023-01-28T17:28:42.927Z,4.44
2023-01-28T17:31:14.102Z,4.24
2023-01-28T17:33:41.517Z,4.27
2023-01-28T17:36:08.490Z,4.21
2023-01-28T17:38:34.930Z,4.20
2023-01-28T17:41:08.053Z,4.33
2023-01-28T17:43:34.973Z,4.49
2023-01-28T17:46:09.609Z,4.28
2023-01-28T17:48:36.011Z,4.06
2023-01-28T17:51:02.358Z,3.84
2023-01-28T17:53:28.751Z,3.91
2023-01-28T17:55:55.251Z,3.92
2023-01-28T17:58:21.605Z,3.94
2023-01-28T18:00:48.072Z,3.93
2023-01-28T18:03:15.787Z,4.06
2023-01-28T18:05:42.386Z,3.86
2023-01-28T18:08:09.432Z,4.06
2023-01-28T18:10:36.007Z,3.93
2023-01-28T18:13:02.586Z,3.99
2023-01-28T18:15:28.976Z,3.94
2023-01-28T18:17:55.282Z,3.98
2023-01-28T18:20:21.627Z,3.81
2023-01-28T18:22:47.992Z,3.53
2023-01-28T18:25:17.155Z,3.55
2023-01-28T18:27:44.557Z,3.50
2023-01-28T18:30:11.471Z,3.71
2023-01-28T18:32:37.810Z,3.70
2023-01-28T18:35:06.438Z,3.48
2023-01-28T18:37:32.907Z,3.80
2023-01-28T18:39:59.300Z,3.58
2023-01-28T18:42:25.720Z,3.37
2023-01-28T18:44:52.050Z,3.39
2023-01-28T18:47:18.514Z,3.73
2023-01-28T18:49:44.926Z,3.52
2023-01-28T18:52:11.243Z,3.61
2023-01-28T18:54:37.664Z,3.69
2023-01-28T18:57:04.978Z,3.48
2023-01-28T18:59:32.118Z,3.70
2023-01-28T19:01:58.474Z,3.59
2023-01-28T19:04:24.895Z,3.15
2023-01-28T19:06:55.468Z,3.61
2023-01-28T19:09:21.859Z,3.25
2023-01-28T19:11:50.172Z,3.14
2023-01-28T19:14:17.301Z,3.32
2023-01-28T19:16:44.267Z,3.57
2023-01-28T19:19:10.929Z,3.43
2023-01-28T19:21:37.895Z,3.41
2023-01-28T19:24:09.396Z,3.52
2023-01-28T19:26:36.835Z,3.49
2023-01-28T19:29:06.794Z,3.12
2023-01-28T19:31:33.244Z,3.26
2023-01-28T19:34:00.622Z,3.48
2023-01-28T19:36:29.295Z,3.20
2023-01-28T19:39:00.387Z,3.48
2023-01-28T19:41:28.314Z,3.48
2023-01-28T19:43:55.769Z,3.22
2023-01-28T19:46:22.403Z,3.29
2023-01-28T19:48:48.792Z,3.09
2023-01-28T19:51:16.064Z,3.34
2023-01-28T19:53:44.225Z,2.94
2023-01-28T19:56:14.197Z,2.78
2023-01-28T19:58:43.269Z,3.25
2023-01-28T20:01:12.296Z,3.15
2023-01-28T20:03:39.189Z,3.12
2023-01-28T20:06:08.227Z,2.62
2023-01-28T20:08:34.574Z,2.69
2023-01-28T20:11:17.913Z,3.18
2023-01-28T20:13:46.285Z,3.12
2023-01-28T20:16:21.510Z,2.60
2023-01-28T20:18:53.361Z,3.02
2023-01-28T20:21:20.243Z,2.91
2023-01-28T20:23:48.108Z,2.21
2023-01-28T20:26:15.130Z,2.71
2023-01-28T20:28:41.732Z,2.71
2023-01-28T20:31:09.944Z,2.72
2023-01-28T20:33:36.870Z,3.00
2023-01-28T20:36:05.504Z,2.90
2023-01-28T20:38:35.870Z,2.95
2023-01-28T20:41:10.837Z,2.83
2023-01-28T20:43:38.723Z,2.91
2023-01-28T20:46:08.225Z,2.83
2023-01-28T20:48:34.707Z,2.72
2023-01-28T20:51:16.040Z,2.58
2023-01-28T20:53:43.119Z,2.81
2023-01-28T20:56:11.117Z,2.58
2023-01-28T20:58:37.455Z,2.24
2023-01-28T21:01:04.541Z,2.34
2023-01-28T21:03:31.462Z,2.36
2023-01-28T21:05:57.833Z,2.41
2023-01-28T21:08:24.242Z,2.50
2023-01-28T21:10:50.679Z,2.55
2023-01-28T21:13:17.152Z,1.93
2023-01-28T21:15:54.847Z,2.37
2023-01-28T21:18:22.121Z,1.73
2023-01-28T21:20:48.565Z,2.17
2023-01-28T21:23:15.734Z,2.22
2023-01-28T21:25:43.065Z,2.41
2023-01-28T21:28:10.950Z,2.09
2023-01-28T21:30:38.202Z,2.37
2023-01-28T21:33:04.649Z,2.26
2023-01-28T21:35:31.189Z,2.47
2023-01-28T21:37:57.588Z,2.26
2023-01-28T21:40:23.941Z,2.28
2023-01-28T21:42:54.097Z,2.17
2023-01-28T21:45:20.709Z,2.13
2023-01-28T21:47:47.070Z,1.95
2023-01-28T21:50:13.675Z,2.04
2023-01-28T21:52:40.498Z,2.17
2023-01-28T21:55:07.214Z,2.11
2023-01-28T21:57:33.540Z,1.87
2023-01-28T22:00:00.140Z,2.22
2023-01-28T22:02:26.567Z,1.97
2023-01-28T22:04:53.028Z,2.30
2023-01-28T22:07:20.057Z,2.07
2023-01-28T22:09:47.400Z,2.27
2023-01-28T22:12:15.132Z,2.23
2023-01-28T22:14:43.278Z,1.88
2023-01-28T22:17:11.608Z,1.98
2023-01-28T22:19:39.212Z,2.16
2023-01-28T22:22:07.061Z,2.32
2023-01-28T22:24:33.515Z,2.30
2023-01-28T22:26:59.962Z,1.83
2023-01-28T22:29:26.853Z,1.97
2023-01-28T22:31:53.953Z,2.22
2023-01-28T22:34:21.137Z,2.23
2023-01-28T22:36:47.845Z,1.96
2023-01-28T22:39:15.939Z,2.16
2023-01-28T22:41:43.819Z,2.17
2023-01-28T22:44:10.765Z,2.16
2023-01-28T22:46:37.411Z,2.20
2023-01-28T22:49:03.966Z,2.18
2023-01-28T22:51:33.205Z,2.01
2023-01-28T22:53:59.716Z,1.97
2023-01-28T22:56:27.986Z,2.13
2023-01-28T22:58:55.930Z,2.03
2023-01-28T23:01:22.786Z,1.58
2023-01-28T23:03:51.380Z,1.85
2023-01-28T23:06:20.114Z,1.68
2023-01-28T23:08:47.512Z,1.68
2023-01-28T23:11:15.330Z,1.69
2023-01-28T23:14:01.721Z,1.87
2023-01-28T23:16:49.566Z,1.84
2023-01-28T23:19:35.474Z,1.96
2023-01-28T23:22:20.722Z,1.80
2023-01-28T23:24:47.105Z,1.98
2023-01-28T23:27:13.418Z,1.73
2023-01-28T23:29:39.791Z,1.79
2023-01-28T23:32:10.705Z,1.88
2023-01-28T23:34:44.371Z,1.68
2023-01-28T23:37:15.030Z,1.69
2023-01-28T23:39:42.577Z,1.68
2023-01-28T23:42:11.516Z,1.51
2023-01-28T23:44:37.827Z,1.59
2023-01-28T23:47:04.205Z,1.56
2023-01-28T23:49:30.675Z,1.39
2023-01-28T23:51:57.005Z,1.62
2023-01-28T23:54:23.323Z,1.44
2023-01-28T23:56:49.727Z,1.52
2023-01-28T23:59:16.227Z,1.46
